createdAt,value
2019-02-06T00:01:08.421Z,98887.81
2019-02-06T00:03:38.835Z,98894.63
2019-02-06T00:06:09.345Z,98893.73
2019-02-06T00:08:39.781Z,98895.52
2019-02-06T00:11:10.424Z,98890.39
2019-02-06T00:13:40.701Z,98887.50
2019-02-06T00:16:11.154Z,98891.47
2019-02-06T00:18:41.615Z,98893.83
2019-02-06T00:21:12.475Z,98894.88
2019-02-06T00:23:42.820Z,98902.47
2019-02-06T00:26:13.597Z,98894.30
2019-02-06T00:28:43.972Z,98894.84
2019-02-06T00:31:14.448Z,98892.71
2019-02-06T00:33:44.852Z,98894.17
2019-02-06T00:36:15.130Z,98896.42
2019-02-06T00:38:45.546Z,98895.89
2019-02-06T00:41:15.851Z,98888.63
2019-02-06T00:43:46.195Z,98889.21
2019-02-06T00:46:16.526Z,98891.00
2019-02-06T00:48:47.862Z,98896.52
2019-02-06T00:51:19.184Z,98890.80
2019-02-06T00:53:49.783Z,98890.41
2019-02-06T00:56:20.065Z,98884.12
2019-02-06T00:58:50.358Z,98886.84
2019-02-06T01:01:21.140Z,98882.14
2019-02-06T01:03:51.506Z,98883.39
2019-02-06T01:06:21.814Z,98882.76
2019-02-06T01:08:52.289Z,98881.11
2019-02-06T01:11:22.552Z,98875.70
2019-02-06T01:13:52.890Z,98877.25
2019-02-06T01:16:23.218Z,98870.69
2019-02-06T01:18:53.571Z,98865.95
2019-02-06T01:21:24.355Z,98865.58
2019-02-06T01:23:54.781Z,98863.84
2019-02-06T01:26:24.963Z,98870.68
2019-02-06T01:28:55.129Z,98863.53
2019-02-06T01:31:27.588Z,98871.54
2019-02-06T01:33:57.966Z,98870.72
2019-02-06T01:36:28.395Z,98866.09
2019-02-06T01:38:58.840Z,98871.70
2019-02-06T01:41:29.191Z,98870.01
2019-02-06T01:43:59.356Z,98873.39
2019-02-06T01:46:29.503Z,98871.47
2019-02-06T01:48:59.773Z,98867.67
2019-02-06T01:51:30.146Z,98869.45
2019-02-06T01:54:00.380Z,98867.90
2019-02-06T01:56:30.823Z,98868.12
2019-02-06T01:59:01.100Z,98860.89
2019-02-06T02:01:31.472Z,98862.70
2019-02-06T02:04:01.809Z,98864.63
2019-02-06T02:06:32.241Z,98866.10
2019-02-06T02:09:04.400Z,98861.59
2019-02-06T02:11:34.853Z,98857.27
2019-02-06T02:14:05.511Z,98859.98
2019-02-06T02:16:35.897Z,98858.05
2019-02-06T02:19:06.991Z,98862.98
2019-02-06T02:21:37.436Z,98857.97
2019-02-06T02:24:07.850Z,98863.50
2019-02-06T02:26:38.175Z,98860.45
2019-02-06T02:29:08.655Z,98851.46
2019-02-06T02:31:39.162Z,98855.64
2019-02-06T02:34:09.570Z,98859.03
2019-02-06T02:36:39.937Z,98853.64
2019-02-06T02:39:10.732Z,98855.64
2019-02-06T02:41:41.150Z,98849.56
2019-02-06T02:44:11.594Z,98853.00
2019-02-06T02:46:42.134Z,98852.21
2019-02-06T02:49:12.563Z,98848.86
2019-02-06T02:51:44.431Z,98853.24
2019-02-06T02:54:14.984Z,98852.77
2019-02-06T02:56:45.513Z,98852.29
2019-02-06T02:59:16.360Z,98857.46
2019-02-06T03:01:56.693Z,98849.00
2019-02-06T03:04:36.952Z,98850.03
2019-02-06T03:07:07.505Z,98843.58
2019-02-06T03:09:38.509Z,98845.13
2019-02-06T03:12:08.973Z,98843.00
2019-02-06T03:14:39.150Z,98848.88
2019-02-06T03:17:09.398Z,98840.69
2019-02-06T03:19:39.622Z,98839.27
2019-02-06T03:22:09.866Z,98839.47
2019-02-06T03:24:40.147Z,98839.19
2019-02-06T03:27:10.459Z,98834.48
2019-02-06T03:29:40.614Z,98835.17
2019-02-06T03:32:11.021Z,98836.78
2019-02-06T03:34:41.407Z,98834.09
2019-02-06T03:37:12.080Z,98830.98
2019-02-06T03:39:42.380Z,98831.10
2019-02-06T03:42:12.689Z,98835.48
2019-02-06T03:44:42.887Z,98830.45
2019-02-06T03:47:13.204Z,98831.20
2019-02-06T03:49:43.575Z,98827.42
2019-02-06T03:52:14.199Z,98822.41
2019-02-06T03:54:44.396Z,98829.92
2019-02-06T03:57:14.841Z,98825.48
2019-02-06T03:59:45.171Z,98824.88
2019-02-06T04:02:15.391Z,98832.38
2019-02-06T04:04:45.621Z,98827.34
2019-02-06T04:07:16.341Z,98826.43
2019-02-06T04:09:46.619Z,98833.91
2019-02-06T04:12:16.909Z,98831.97
2019-02-06T04:14:47.131Z,98826.85
2019-02-06T04:17:17.345Z,98833.20
2019-02-06T04:19:47.813Z,98833.36
2019-02-06T04:22:18.244Z,98834.73
2019-02-06T04:24:51.586Z,98839.50
2019-02-06T04:27:20.825Z,98840.90
2019-02-06T04:29:51.167Z,98839.72
2019-02-06T04:32:23.375Z,98840.63
2019-02-06T04:34:53.275Z,98840.69
2019-02-06T04:37:31.857Z,98836.97
2019-02-06T04:40:02.343Z,98840.63
2019-02-06T04:42:32.582Z,98832.70
2019-02-06T04:45:02.806Z,98824.91
2019-02-06T04:47:41.244Z,98824.82
2019-02-06T04:50:12.545Z,98827.95
2019-02-06T04:52:42.912Z,98821.83
2019-02-06T04:55:14.906Z,98825.23
2019-02-06T04:57:46.330Z,98820.06
2019-02-06T05:00:23.327Z,98819.58
2019-02-06T05:02:53.816Z,98821.73
2019-02-06T05:05:24.189Z,98826.96
2019-02-06T05:07:54.559Z,98824.36
2019-02-06T05:10:24.898Z,98816.27
2019-02-06T05:12:55.192Z,98813.94
2019-02-06T05:15:25.645Z,98812.63
2019-02-06T05:17:56.110Z,98805.86
2019-02-06T05:20:39.411Z,98811.53
2019-02-06T05:23:10.809Z,98812.66
2019-02-06T05:25:41.161Z,98807.63
2019-02-06T05:28:11.621Z,98810.98
2019-02-06T05:30:42.024Z,98810.14
2019-02-06T05:33:12.363Z,98810.38
2019-02-06T05:35:42.673Z,98814.52
2019-02-06T05:38:12.947Z,98821.16
2019-02-06T05:40:43.408Z,98824.91
2019-02-06T05:43:13.643Z,98820.16
2019-02-06T05:45:43.891Z,98826.84
2019-02-06T05:48:14.247Z,98824.86
2019-02-06T05:50:44.713Z,98829.05
2019-02-06T05:53:14.852Z,98827.94
2019-02-06T05:55:45.087Z,98818.39
2019-02-06T05:58:15.364Z,98823.47
2019-02-06T06:00:47.631Z,98823.30
2019-02-06T06:03:18.021Z,98825.47
2019-02-06T06:05:48.541Z,98826.16
2019-02-06T06:08:18.830Z,98828.07
2019-02-06T06:10:49.056Z,98822.19
2019-02-06T06:13:19.377Z,98822.12
2019-02-06T06:15:49.824Z,98825.80
2019-02-06T06:18:21.958Z,98818.74
2019-02-06T06:20:52.641Z,98814.66
2019-02-06T06:23:22.908Z,98820.97
2019-02-06T06:25:53.165Z,98819.33
2019-02-06T06:28:23.510Z,98827.11
2019-02-06T06:30:53.798Z,98814.20
2019-02-06T06:33:24.088Z,98824.63
2019-02-06T06:35:54.668Z,98823.39
2019-02-06T06:38:25.128Z,98822.97
2019-02-06T06:40:55.482Z,98822.92
2019-02-06T06:43:25.792Z,98815.30
2019-02-06T06:45:56.067Z,98816.78
2019-02-06T06:48:26.352Z,98816.00
2019-02-06T06:50:56.801Z,98817.16
2019-02-06T06:53:27.066Z,98817.69
2019-02-06T06:55:57.288Z,98820.33
2019-02-06T06:58:27.740Z,98822.92
2019-02-06T07:00:58.105Z,98827.84
2019-02-06T07:03:28.705Z,98827.36
2019-02-06T07:05:58.926Z,98832.33
2019-02-06T07:08:29.208Z,98834.87
2019-02-06T07:10:59.598Z,98839.16
2019-02-06T07:13:29.917Z,98832.92
2019-02-06T07:16:00.499Z,98838.12
2019-02-06T07:18:31.030Z,98833.58
2019-02-06T07:21:01.836Z,98833.39
2019-02-06T07:23:32.328Z,98830.27
2019-02-06T07:26:02.695Z,98830.86
2019-02-06T07:28:32.983Z,98833.75
2019-02-06T07:31:03.815Z,98830.95
2019-02-06T07:33:34.159Z,98832.64
2019-02-06T07:36:04.627Z,98831.73
2019-02-06T07:38:34.914Z,98831.16
2019-02-06T07:41:05.269Z,98837.59
2019-02-06T07:43:35.586Z,98833.23
2019-02-06T07:46:07.366Z,98837.63
2019-02-06T07:48:38.778Z,98837.20
2019-02-06T07:51:09.172Z,98841.95
2019-02-06T07:53:39.541Z,98844.41
2019-02-06T07:56:09.953Z,98836.46
2019-02-06T07:58:40.378Z,98845.78
2019-02-06T08:01:10.819Z,98843.12
2019-02-06T08:03:41.052Z,98846.64
2019-02-06T08:06:12.473Z,98843.37
2019-02-06T08:08:42.884Z,98849.38
2019-02-06T08:11:14.094Z,98846.77
2019-02-06T08:13:44.695Z,98843.03
2019-02-06T08:16:15.052Z,98838.23
2019-02-06T08:18:45.352Z,98836.60
2019-02-06T08:21:15.665Z,98835.16
2019-02-06T08:23:45.999Z,98833.38
2019-02-06T08:26:16.386Z,98834.31
2019-02-06T08:28:46.713Z,98836.94
2019-02-06T08:31:16.958Z,98832.04
2019-02-06T08:33:47.313Z,98837.83
2019-02-06T08:36:17.741Z,98841.98
2019-02-06T08:38:48.714Z,98841.77
2019-02-06T08:41:20.146Z,98836.72
2019-02-06T08:43:50.359Z,98838.06
2019-02-06T08:46:20.659Z,98837.87
2019-02-06T08:48:50.935Z,98836.67
2019-02-06T08:51:21.260Z,98835.53
2019-02-06T08:53:51.526Z,98836.16
2019-02-06T08:56:21.901Z,98838.44
2019-02-06T08:59:01.245Z,98834.45
2019-02-06T09:01:31.584Z,98840.99
2019-02-06T09:04:01.869Z,98836.80
2019-02-06T09:06:32.162Z,98842.30
2019-02-06T09:09:02.555Z,98840.36
2019-02-06T09:11:32.775Z,98839.75
2019-02-06T09:14:03.279Z,98844.02
2019-02-06T09:16:33.653Z,98844.41
2019-02-06T09:19:03.975Z,98837.03
2019-02-06T09:21:34.762Z,98835.89
2019-02-06T09:24:05.139Z,98838.02
2019-02-06T09:26:36.289Z,98834.57
2019-02-06T09:29:07.059Z,98834.58
2019-02-06T09:31:37.525Z,98833.59
2019-02-06T09:34:09.770Z,98836.70
2019-02-06T09:36:39.940Z,98831.46
2019-02-06T09:39:12.166Z,98830.15
2019-02-06T09:41:42.647Z,98830.62
2019-02-06T09:44:13.013Z,98821.28
2019-02-06T09:46:43.256Z,98827.00
2019-02-06T09:49:15.115Z,98820.05
2019-02-06T09:51:45.675Z,98815.33
2019-02-06T09:54:15.871Z,98813.13
2019-02-06T09:56:46.184Z,98816.27
2019-02-06T09:59:16.296Z,98811.07
2019-02-06T10:01:46.543Z,98821.64
2019-02-06T10:04:16.959Z,98816.73
2019-02-06T10:06:47.353Z,98811.95
2019-02-06T10:09:23.025Z,98814.06
2019-02-06T10:11:49.649Z,98806.53
2019-02-06T10:14:19.829Z,98804.30
2019-02-06T10:16:50.461Z,98805.89
2019-02-06T10:19:20.720Z,98804.98
2019-02-06T10:21:53.592Z,98808.77
2019-02-06T10:24:23.040Z,98811.08
2019-02-06T10:26:53.326Z,98816.05
2019-02-06T10:29:23.695Z,98810.30
2019-02-06T10:31:54.337Z,98808.81
2019-02-06T10:34:24.541Z,98804.22
2019-02-06T10:36:54.875Z,98801.22
2019-02-06T10:39:34.256Z,98794.69
2019-02-06T10:41:57.157Z,98793.34
2019-02-06T10:44:27.658Z,98796.83
2019-02-06T10:46:57.862Z,98791.47
2019-02-06T10:49:28.203Z,98790.79
2019-02-06T10:51:58.593Z,98788.13
2019-02-06T10:54:28.874Z,98783.30
2019-02-06T10:56:59.082Z,98778.62
2019-02-06T10:59:29.747Z,98771.11
2019-02-06T11:02:00.047Z,98764.08
2019-02-06T11:04:30.361Z,98768.97
2019-02-06T11:07:00.705Z,98763.58
2019-02-06T11:09:30.906Z,98752.59
2019-02-06T11:12:01.247Z,98750.70
2019-02-06T11:14:31.579Z,98753.30
2019-02-06T11:17:04.849Z,98745.59
2019-02-06T11:19:35.002Z,98739.69
2019-02-06T11:22:05.548Z,98738.64
2019-02-06T11:24:35.763Z,98737.25
2019-02-06T11:27:06.703Z,98733.16
2019-02-06T11:29:36.932Z,98727.17
2019-02-06T11:32:07.278Z,98724.05
2019-02-06T11:34:37.479Z,98719.05
2019-02-06T11:37:07.962Z,98717.83
2019-02-06T11:39:38.312Z,98713.00
2019-02-06T11:42:08.584Z,98704.50
2019-02-06T11:44:38.871Z,98702.80
2019-02-06T11:47:09.187Z,98704.06
2019-02-06T11:49:42.420Z,98696.31
2019-02-06T11:52:12.817Z,98699.94
2019-02-06T11:54:43.581Z,98689.48
2019-02-06T11:57:15.373Z,98691.09
2019-02-06T11:59:45.674Z,98692.57
2019-02-06T12:02:17.459Z,98704.59
2019-02-06T12:04:47.687Z,98683.61
2019-02-06T12:07:18.451Z,98687.26
2019-02-06T12:09:48.954Z,98682.58
2019-02-06T12:12:19.193Z,98676.48
2019-02-06T12:14:49.404Z,98671.20
2019-02-06T12:17:19.757Z,98669.36
2019-02-06T12:19:50.020Z,98657.65
2019-02-06T12:22:20.484Z,98654.52
2019-02-06T12:24:50.784Z,98647.52
2019-02-06T12:27:21.168Z,98645.16
2019-02-06T12:29:51.541Z,98644.66
2019-02-06T12:32:22.015Z,98635.02
2019-02-06T12:34:52.166Z,98633.48
2019-02-06T12:37:23.788Z,98624.52
2019-02-06T12:39:54.200Z,98625.80
2019-02-06T12:42:24.602Z,98623.95
2019-02-06T12:44:54.949Z,98616.45
2019-02-06T12:47:26.902Z,98614.73
2019-02-06T12:49:57.239Z,98613.41
2019-02-06T12:52:27.590Z,98604.59
2019-02-06T12:54:57.889Z,98597.41
2019-02-06T12:57:36.409Z,98593.03
2019-02-06T13:00:00.190Z,98587.77
2019-02-06T13:02:30.439Z,98589.80
2019-02-06T13:05:00.777Z,98584.97
2019-02-06T13:07:31.344Z,98588.22
2019-02-06T13:10:01.572Z,98583.02
2019-02-06T13:12:31.721Z,98578.13
2019-02-06T13:15:01.991Z,98573.86
2019-02-06T13:17:33.436Z,98577.33
2019-02-06T13:20:03.994Z,98573.63
2019-02-06T13:22:34.299Z,98571.54
2019-02-06T13:25:05.466Z,98571.16
2019-02-06T13:27:35.762Z,98566.66
2019-02-06T13:30:10.993Z,98564.65
2019-02-06T13:32:41.214Z,98566.29
2019-02-06T13:35:12.846Z,98560.34
2019-02-06T13:37:43.096Z,98553.59
2019-02-06T13:40:17.035Z,98547.39
2019-02-06T13:42:47.301Z,98543.84
2019-02-06T13:45:21.812Z,98550.45
2019-02-06T13:47:52.132Z,98547.30
2019-02-06T13:50:23.288Z,98539.68
2019-02-06T13:52:53.641Z,98533.76
2019-02-06T13:55:24.040Z,98536.52
2019-02-06T13:57:54.398Z,98533.97
2019-02-06T14:00:29.116Z,98522.77
2019-02-06T14:02:59.692Z,98522.06
2019-02-06T14:05:32.201Z,98522.08
2019-02-06T14:08:12.133Z,98520.87
2019-02-06T14:10:43.588Z,98513.84
2019-02-06T14:13:14.597Z,98508.03
2019-02-06T14:15:47.485Z,98502.13
2019-02-06T14:18:17.993Z,98495.02
2019-02-06T14:20:52.733Z,98490.95
2019-02-06T14:23:35.941Z,98482.78
2019-02-06T14:26:38.679Z,98487.19
2019-02-06T14:30:15.301Z,98485.43
2019-02-06T14:33:32.894Z,98473.14
2019-02-06T14:36:40.587Z,98471.81
2019-02-06T14:39:50.977Z,98461.22
2019-02-06T14:43:30.161Z,98457.37
2019-02-06T14:46:54.114Z,98458.87
2019-02-06T14:50:22.330Z,98452.88
2019-02-06T14:53:30.245Z,98453.28
2019-02-06T14:56:44.925Z,98454.50
2019-02-06T14:59:42.445Z,98445.36
2019-02-06T15:03:14.114Z,98444.63
2019-02-06T15:06:26.271Z,98439.35
2019-02-06T15:09:55.602Z,98439.66
2019-02-06T15:13:00.367Z,98437.61
2019-02-06T15:16:08.736Z,98429.88
2019-02-06T15:19:41.021Z,98429.47
2019-02-06T15:22:48.931Z,98421.42
2019-02-06T15:25:56.890Z,98424.00
2019-02-06T15:29:06.908Z,98412.20
2019-02-06T15:32:11.271Z,98410.47
2019-02-06T15:35:36.505Z,98406.80
2019-02-06T15:38:46.808Z,98412.39
2019-02-06T15:41:50.718Z,98407.91
2019-02-06T15:44:43.697Z,98407.50
2019-02-06T15:48:02.475Z,98407.07
2019-02-06T15:51:50.624Z,98407.48
2019-02-06T15:55:35.638Z,98396.81
2019-02-06T15:59:05.116Z,98398.86
2019-02-06T16:01:55.163Z,98399.67
2019-02-06T16:05:37.818Z,98398.81
2019-02-06T16:08:58.221Z,98401.17
2019-02-06T16:12:14.068Z,98404.52
2019-02-06T16:15:09.234Z,98403.11
2019-02-06T16:18:29.723Z,98398.75
2019-02-06T16:21:53.039Z,98385.69
2019-02-06T16:24:50.717Z,98385.77
2019-02-06T16:27:56.831Z,98387.84
2019-02-06T16:31:33.568Z,98384.48
2019-02-06T16:34:42.377Z,98387.80
2019-02-06T16:38:04.742Z,98393.17
2019-02-06T16:41:07.978Z,98393.76
2019-02-06T16:44:06.360Z,98392.39
2019-02-06T16:47:24.138Z,98385.26
2019-02-06T16:50:34.675Z,98388.47
2019-02-06T16:54:20.634Z,98381.25
2019-02-06T16:57:58.512Z,98381.00
2019-02-06T17:01:25.744Z,98380.64
2019-02-06T17:04:31.336Z,98374.72
2019-02-06T17:07:28.379Z,98368.16
2019-02-06T17:10:57.221Z,98365.38
2019-02-06T17:14:33.491Z,98363.41
2019-02-06T17:17:50.460Z,98364.00
2019-02-06T17:21:20.569Z,98367.16
2019-02-06T17:24:38.609Z,98363.91
2019-02-06T17:28:24.082Z,98370.22
2019-02-06T17:31:49.425Z,98363.50
2019-02-06T17:34:48.265Z,98364.72
2019-02-06T17:38:24.710Z,98355.91
2019-02-06T17:41:25.214Z,98356.22
2019-02-06T17:44:28.736Z,98346.48
2019-02-06T17:47:48.107Z,98345.95
2019-02-06T17:51:42.179Z,98340.33
2019-02-06T17:54:47.693Z,98334.48
2019-02-06T17:57:17.896Z,98336.76
2019-02-06T17:59:48.465Z,98328.33
2019-02-06T18:02:19.246Z,98325.74
2019-02-06T18:04:50.367Z,98331.70
2019-02-06T18:07:20.852Z,98320.58
2019-02-06T18:09:51.113Z,98314.10
2019-02-06T18:12:26.545Z,98313.19
2019-02-06T18:14:53.664Z,98298.88
2019-02-06T18:17:23.964Z,98303.50
2019-02-06T18:19:55.235Z,98299.04
2019-02-06T18:22:25.641Z,98303.91
2019-02-06T18:24:56.211Z,98294.73
2019-02-06T18:27:26.618Z,98292.02
2019-02-06T18:30:00.426Z,98296.48
2019-02-06T18:32:32.738Z,98295.48
2019-02-06T18:35:03.638Z,98299.00
2019-02-06T18:37:43.399Z,98300.10
2019-02-06T18:40:12.420Z,98296.60
2019-02-06T18:42:42.976Z,98292.18
2019-02-06T18:45:15.881Z,98300.36
2019-02-06T18:47:46.511Z,98291.86
2019-02-06T18:50:21.243Z,98290.05
2019-02-06T18:52:51.740Z,98293.50
2019-02-06T18:55:22.209Z,98295.35
2019-02-06T18:57:53.240Z,98302.20
2019-02-06T19:00:33.364Z,98299.30
2019-02-06T19:03:13.210Z,98305.43
2019-02-06T19:05:43.831Z,98301.08
2019-02-06T19:08:15.000Z,98308.19
2019-02-06T19:10:46.109Z,98303.96
2019-02-06T19:13:17.791Z,98304.16
2019-02-06T19:15:56.151Z,98298.47
2019-02-06T19:18:20.947Z,98304.81
2019-02-06T19:20:52.549Z,98299.16
2019-02-06T19:23:23.058Z,98301.77
2019-02-06T19:25:53.613Z,98304.56
2019-02-06T19:28:24.468Z,98295.41
2019-02-06T19:30:55.633Z,98291.36
2019-02-06T19:33:26.302Z,98290.17
2019-02-06T19:35:56.719Z,98284.02
2019-02-06T19:38:27.105Z,98279.61
2019-02-06T19:40:57.770Z,98270.45
2019-02-06T19:43:28.222Z,98265.38
2019-02-06T19:45:58.638Z,98257.38
2019-02-06T19:48:29.265Z,98262.29
2019-02-06T19:51:00.633Z,98263.41
2019-02-06T19:53:30.991Z,98267.67
2019-02-06T19:56:01.445Z,98259.83
2019-02-06T19:58:32.205Z,98254.45
2019-02-06T20:01:02.637Z,98248.89
2019-02-06T20:03:33.195Z,98254.76
2019-02-06T20:06:05.543Z,98251.17
2019-02-06T20:08:35.723Z,98244.47
2019-02-06T20:11:06.196Z,98233.20
2019-02-06T20:13:36.981Z,98237.27
2019-02-06T20:16:07.331Z,98235.81
2019-02-06T20:18:37.733Z,98230.92
2019-02-06T20:21:09.021Z,98230.09
2019-02-06T20:23:39.414Z,98237.45
2019-02-06T20:26:09.861Z,98234.65
2019-02-06T20:28:40.527Z,98230.73
2019-02-06T20:31:10.912Z,98228.45
2019-02-06T20:33:41.105Z,98220.77
2019-02-06T20:36:11.357Z,98221.92
2019-02-06T20:38:41.684Z,98225.84
2019-02-06T20:41:12.006Z,98225.84
2019-02-06T20:43:42.760Z,98220.14
2019-02-06T20:46:13.793Z,98228.13
2019-02-06T20:48:44.110Z,98233.02
2019-02-06T20:51:14.528Z,98232.52
2019-02-06T20:53:48.148Z,98228.94
2019-02-06T20:56:18.575Z,98226.81
2019-02-06T20:58:49.574Z,98228.59
2019-02-06T21:01:19.901Z,98223.70
2019-02-06T21:03:50.174Z,98222.86
2019-02-06T21:06:21.257Z,98214.38
2019-02-06T21:08:51.776Z,98204.07
2019-02-06T21:11:23.176Z,98210.73
2019-02-06T21:13:53.529Z,98201.45
2019-02-06T21:16:23.792Z,98200.63
2019-02-06T21:18:54.230Z,98199.50
2019-02-06T21:21:24.584Z,98193.42
2019-02-06T21:23:54.874Z,98187.22
2019-02-06T21:26:25.378Z,98186.09
2019-02-06T21:28:55.806Z,98181.32
2019-02-06T21:31:26.147Z,98172.75
2019-02-06T21:33:56.459Z,98177.23
2019-02-06T21:36:26.839Z,98174.34
2019-02-06T21:38:58.379Z,98166.30
2019-02-06T21:41:29.081Z,98167.13
2019-02-06T21:43:59.348Z,98167.96
2019-02-06T21:46:29.740Z,98164.86
2019-02-06T21:49:00.055Z,98162.33
2019-02-06T21:51:30.368Z,98160.67
2019-02-06T21:54:00.512Z,98165.29
2019-02-06T21:56:30.775Z,98160.59
2019-02-06T21:59:01.122Z,98163.38
2019-02-06T22:01:31.625Z,98160.27
2019-02-06T22:04:02.069Z,98168.62
2019-02-06T22:06:32.394Z,98168.67
2019-02-06T22:09:04.311Z,98172.91
2019-02-06T22:11:34.773Z,98172.61
2019-02-06T22:14:05.312Z,98160.03
2019-02-06T22:16:35.834Z,98166.70
2019-02-06T22:19:07.209Z,98165.05
2019-02-06T22:21:38.935Z,98166.67
2019-02-06T22:24:09.351Z,98159.64
2019-02-06T22:26:39.781Z,98152.61
2019-02-06T22:29:10.249Z,98150.59
2019-02-06T22:31:40.765Z,98144.41
2019-02-06T22:34:18.846Z,98146.03
2019-02-06T22:36:49.168Z,98150.27
2019-02-06T22:39:20.659Z,98148.80
2019-02-06T22:41:50.955Z,98138.69
2019-02-06T22:44:21.308Z,98141.09
2019-02-06T22:46:51.950Z,98138.47
2019-02-06T22:49:22.256Z,98133.59
2019-02-06T22:51:52.393Z,98134.89
2019-02-06T22:54:22.816Z,98130.95
2019-02-06T22:56:53.180Z,98128.08
2019-02-06T22:59:23.516Z,98129.23
2019-02-06T23:01:57.899Z,98118.89
2019-02-06T23:04:28.307Z,98110.61
2019-02-06T23:06:59.142Z,98107.52
2019-02-06T23:09:29.514Z,98111.29
2019-02-06T23:11:59.831Z,98101.33
2019-02-06T23:14:30.389Z,98098.97
2019-02-06T23:17:00.712Z,98091.48
2019-02-06T23:19:31.112Z,98082.71
2019-02-06T23:22:01.380Z,98072.60
2019-02-06T23:24:31.719Z,98065.94
2019-02-06T23:27:04.474Z,98056.66
2019-02-06T23:29:34.896Z,98056.19
2019-02-06T23:32:05.527Z,98048.36
2019-02-06T23:34:35.817Z,98049.81
2019-02-06T23:37:06.345Z,98053.42
2019-02-06T23:39:36.814Z,98048.84
2019-02-06T23:42:07.191Z,98041.00
2019-02-06T23:44:37.632Z,98045.41
2019-02-06T23:47:08.015Z,98043.14
2019-02-06T23:49:38.325Z,98041.98
2019-02-06T23:52:08.669Z,98037.09
2019-02-06T23:54:39.219Z,98041.02
2019-02-06T23:57:09.612Z,98035.98
2019-02-06T23:59:40.022Z,98034.48
